createdAt,value
2023-02-25T00:00:34.822Z,10.02
2023-02-25T00:03:01.926Z,10.02
2023-02-25T00:05:31.686Z,10.21
2023-02-25T00:07:59.568Z,10.13
2023-02-25T00:10:26.184Z,10.25
2023-02-25T00:12:52.945Z,10.19
2023-02-25T00:15:19.781Z,10.25
2023-02-25T00:17:49.722Z,10.38
2023-02-25T00:20:18.474Z,10.51
2023-02-25T00:22:45.104Z,10.54
2023-02-25T00:25:11.943Z,10.57
2023-02-25T00:27:38.550Z,10.56
2023-02-25T00:30:05.866Z,10.44
2023-02-25T00:32:32.759Z,10.34
2023-02-25T00:34:59.589Z,10.16
2023-02-25T00:37:26.314Z,10.08
2023-02-25T00:39:52.941Z,10.02
2023-02-25T00:42:19.824Z,9.94
2023-02-25T00:44:48.283Z,9.78
2023-02-25T00:47:17.668Z,9.70
2023-02-25T00:49:47.335Z,9.77
2023-02-25T00:52:15.758Z,9.63
2023-02-25T00:54:42.803Z,9.57
2023-02-25T00:57:10.031Z,9.54
2023-02-25T00:59:36.729Z,9.48
2023-02-25T01:02:03.856Z,9.39
2023-02-25T01:04:30.766Z,9.23
2023-02-25T01:06:57.861Z,9.28
2023-02-25T01:09:25.627Z,9.28
2023-02-25T01:11:52.286Z,9.27
2023-02-25T01:14:21.887Z,9.37
2023-02-25T01:16:50.812Z,9.34
2023-02-25T01:19:26.972Z,9.33
2023-02-25T01:21:56.721Z,9.51
2023-02-25T01:24:28.037Z,9.55
2023-02-25T01:26:57.693Z,9.62
2023-02-25T01:29:30.800Z,9.63
2023-02-25T01:32:00.026Z,9.64
2023-02-25T01:34:28.824Z,9.62
2023-02-25T01:36:56.728Z,9.41
2023-02-25T01:39:26.461Z,9.46
2023-02-25T01:41:55.705Z,9.34
2023-02-25T01:44:32.884Z,9.23
2023-02-25T01:47:01.357Z,9.23
2023-02-25T01:49:46.277Z,9.22
2023-02-25T01:52:15.302Z,9.19
2023-02-25T01:54:45.338Z,9.11
2023-02-25T01:57:15.064Z,9.05
2023-02-25T01:59:43.131Z,8.88
2023-02-25T02:02:15.614Z,8.96
2023-02-25T02:04:43.999Z,8.96
2023-02-25T02:07:11.195Z,8.94
2023-02-25T02:09:40.277Z,9.00
2023-02-25T02:12:07.511Z,9.04
2023-02-25T02:14:42.243Z,9.06
2023-02-25T02:17:30.207Z,8.92
2023-02-25T02:21:05.527Z,8.84
2023-02-25T02:23:41.124Z,9.07
2023-02-25T02:26:43.394Z,9.01
2023-02-25T02:29:48.788Z,9.02
2023-02-25T02:32:50.953Z,9.00
2023-02-25T02:35:22.388Z,8.84
2023-02-25T02:38:08.489Z,8.81
2023-02-25T02:40:47.204Z,8.83
2023-02-25T02:43:57.825Z,8.57
2023-02-25T02:46:30.430Z,8.81
2023-02-25T02:49:12.420Z,8.69
2023-02-25T02:51:48.970Z,8.79
2023-02-25T02:54:17.978Z,8.80
2023-02-25T02:56:49.338Z,8.81
2023-02-25T02:59:25.844Z,8.90
2023-02-25T03:02:00.250Z,9.04
2023-02-25T03:04:31.814Z,9.05
2023-02-25T03:07:04.398Z,9.02
2023-02-25T03:09:35.654Z,8.90
2023-02-25T03:12:02.571Z,8.59
2023-02-25T03:14:32.453Z,8.81
2023-02-25T03:17:10.057Z,8.65
2023-02-25T03:19:45.253Z,8.75
2023-02-25T03:22:19.486Z,8.76
2023-02-25T03:24:57.633Z,8.72
2023-02-25T03:27:29.267Z,8.62
2023-02-25T03:30:09.536Z,8.44
2023-02-25T03:32:38.294Z,8.12
2023-02-25T03:35:09.188Z,8.23
2023-02-25T03:37:38.986Z,8.15
2023-02-25T03:40:12.214Z,8.46
2023-02-25T03:42:44.831Z,8.31
2023-02-25T03:45:13.612Z,8.31
2023-02-25T03:47:41.672Z,8.56
2023-02-25T03:50:08.689Z,8.59
2023-02-25T03:52:36.394Z,8.77
2023-02-25T03:55:10.287Z,8.74
2023-02-25T03:57:40.754Z,8.73
2023-02-25T04:00:18.034Z,8.88
2023-02-25T04:02:47.348Z,8.82
2023-02-25T04:05:16.045Z,8.74
2023-02-25T04:07:42.983Z,8.69
2023-02-25T04:10:11.880Z,8.77
2023-02-25T04:12:39.617Z,8.70
2023-02-25T04:15:07.617Z,8.81
2023-02-25T04:17:35.132Z,8.74
2023-02-25T04:20:01.932Z,8.55
2023-02-25T04:22:28.551Z,8.62
2023-02-25T04:24:55.212Z,8.46
2023-02-25T04:27:21.811Z,8.55
2023-02-25T04:29:48.574Z,8.63
2023-02-25T04:32:15.397Z,8.70
2023-02-25T04:34:42.068Z,8.47
2023-02-25T04:37:09.918Z,8.72
2023-02-25T04:39:37.269Z,8.66
2023-02-25T04:42:04.184Z,8.81
2023-02-25T04:44:30.998Z,8.65
2023-02-25T04:46:57.741Z,8.65
2023-02-25T04:49:24.922Z,8.64
2023-02-25T04:51:52.033Z,8.62
2023-02-25T04:54:19.948Z,8.70
2023-02-25T04:56:47.744Z,8.70
2023-02-25T04:59:15.211Z,8.79
2023-02-25T05:01:42.040Z,8.70
2023-02-25T05:04:08.831Z,8.70
2023-02-25T05:06:35.490Z,8.73
2023-02-25T05:09:02.205Z,8.79
2023-02-25T05:11:29.599Z,8.75
2023-02-25T05:13:57.178Z,8.82
2023-02-25T05:16:25.039Z,8.87
2023-02-25T05:18:52.563Z,8.93
2023-02-25T05:21:24.607Z,8.87
2023-02-25T05:23:53.221Z,8.88
2023-02-25T05:26:22.164Z,8.65
2023-02-25T05:28:53.590Z,8.79
2023-02-25T05:31:21.492Z,8.89
2023-02-25T05:33:48.288Z,8.93
2023-02-25T05:36:16.068Z,8.77
2023-02-25T05:38:43.974Z,8.88
2023-02-25T05:41:12.007Z,8.87
2023-02-25T05:43:39.609Z,8.82
2023-02-25T05:46:11.498Z,8.74
2023-02-25T05:48:40.137Z,8.72
2023-02-25T05:51:11.873Z,8.89
2023-02-25T05:53:38.846Z,9.06
2023-02-25T05:56:07.439Z,9.14
2023-02-25T05:58:34.721Z,9.09
2023-02-25T06:01:16.485Z,9.08
2023-02-25T06:03:46.121Z,9.02
2023-02-25T06:06:14.682Z,9.14
2023-02-25T06:08:44.755Z,9.12
2023-02-25T06:11:15.836Z,9.11
2023-02-25T06:13:42.683Z,9.13
2023-02-25T06:16:09.723Z,9.16
2023-02-25T06:18:39.716Z,9.12
2023-02-25T06:21:08.971Z,9.16
2023-02-25T06:23:37.871Z,9.08
2023-02-25T06:26:07.710Z,9.08
2023-02-25T06:28:35.235Z,9.03
2023-02-25T06:31:02.090Z,8.89
2023-02-25T06:33:33.222Z,8.91
2023-02-25T06:36:00.041Z,8.85
2023-02-25T06:38:26.770Z,8.70
2023-02-25T06:40:53.414Z,8.86
2023-02-25T06:43:20.129Z,8.77
2023-02-25T06:45:46.740Z,8.64
2023-02-25T06:48:13.425Z,8.66
2023-02-25T06:50:41.032Z,8.65
2023-02-25T06:53:09.018Z,8.65
2023-02-25T06:55:39.175Z,8.59
2023-02-25T06:58:06.213Z,8.58
2023-02-25T07:00:33.015Z,8.54
2023-02-25T07:03:02.884Z,8.46
2023-02-25T07:05:29.595Z,8.66
2023-02-25T07:07:56.289Z,8.71
2023-02-25T07:10:22.931Z,8.52
2023-02-25T07:12:49.624Z,8.76
2023-02-25T07:15:16.232Z,8.82
2023-02-25T07:17:43.020Z,8.82
2023-02-25T07:20:10.447Z,8.86
2023-02-25T07:22:37.186Z,8.71
2023-02-25T07:25:04.854Z,8.79
2023-02-25T07:27:31.492Z,8.78
2023-02-25T07:29:58.140Z,8.74
2023-02-25T07:32:25.371Z,8.98
2023-02-25T07:34:52.159Z,9.06
2023-02-25T07:37:18.785Z,9.03
2023-02-25T07:39:47.603Z,9.11
2023-02-25T07:42:14.416Z,9.22
2023-02-25T07:44:45.287Z,9.18
2023-02-25T07:47:11.952Z,9.37
2023-02-25T07:49:38.619Z,9.44
2023-02-25T07:52:05.228Z,9.34
2023-02-25T07:54:31.871Z,9.35
2023-02-25T07:56:58.539Z,9.22
2023-02-25T07:59:25.199Z,9.41
2023-02-25T08:01:51.846Z,9.54
2023-02-25T08:04:18.624Z,9.39
2023-02-25T08:06:47.069Z,9.18
2023-02-25T08:09:13.970Z,9.15
2023-02-25T08:11:41.268Z,9.11
2023-02-25T08:14:07.992Z,9.18
2023-02-25T08:16:34.691Z,8.79
2023-02-25T08:19:01.899Z,8.98
2023-02-25T08:21:28.652Z,8.87
2023-02-25T08:23:55.291Z,8.86
2023-02-25T08:26:23.856Z,8.89
2023-02-25T08:28:51.194Z,8.51
2023-02-25T08:31:18.756Z,8.72
2023-02-25T08:33:52.711Z,8.97
2023-02-25T08:36:22.767Z,8.79
2023-02-25T08:38:50.414Z,8.76
2023-02-25T08:41:18.177Z,9.06
2023-02-25T08:43:47.999Z,8.84
2023-02-25T08:46:14.761Z,8.79
2023-02-25T08:48:41.433Z,8.61
2023-02-25T08:51:10.191Z,8.77
2023-02-25T08:53:38.834Z,9.13
2023-02-25T08:56:11.107Z,9.50
2023-02-25T08:58:38.566Z,9.55
2023-02-25T09:01:15.991Z,9.50
2023-02-25T09:03:51.076Z,9.59
2023-02-25T09:06:22.020Z,9.63
2023-02-25T09:08:49.391Z,9.72
2023-02-25T09:11:16.499Z,9.97
2023-02-25T09:13:43.235Z,9.87
2023-02-25T09:16:10.036Z,9.71
2023-02-25T09:18:36.853Z,9.24
2023-02-25T09:21:04.050Z,9.70
2023-02-25T09:23:30.741Z,9.99
2023-02-25T09:26:01.535Z,9.92
2023-02-25T09:28:28.201Z,9.70
2023-02-25T09:30:57.094Z,9.73
2023-02-25T09:33:25.019Z,10.18
2023-02-25T09:35:52.652Z,10.17
2023-02-25T09:38:19.632Z,10.35
2023-02-25T09:40:47.940Z,10.11
2023-02-25T09:43:26.718Z,10.07
2023-02-25T09:45:58.918Z,10.08
2023-02-25T09:48:33.388Z,9.67
2023-02-25T09:51:31.301Z,9.76
2023-02-25T09:54:04.057Z,10.30
2023-02-25T09:56:30.938Z,10.57
2023-02-25T09:58:58.956Z,10.50
2023-02-25T10:01:36.307Z,11.02
2023-02-25T10:04:13.364Z,11.04
2023-02-25T10:06:43.718Z,11.26
2023-02-25T10:09:45.299Z,11.13
2023-02-25T10:12:40.814Z,11.24
2023-02-25T10:15:26.246Z,10.98
2023-02-25T10:18:31.092Z,10.90
2023-02-25T10:21:45.544Z,11.33
2023-02-25T10:24:25.019Z,10.46
2023-02-25T10:27:00.121Z,11.11
2023-02-25T10:29:40.033Z,10.84
2023-02-25T10:32:19.978Z,11.42
2023-02-25T10:34:47.178Z,11.37
2023-02-25T10:37:30.634Z,11.37
2023-02-25T10:39:59.916Z,11.59
2023-02-25T10:42:27.471Z,11.76
2023-02-25T10:45:09.859Z,11.59
2023-02-25T10:47:40.728Z,11.85
2023-02-25T10:50:32.518Z,12.44
2023-02-25T10:53:17.252Z,12.67
2023-02-25T10:55:43.963Z,12.55
2023-02-25T10:58:25.941Z,11.86
2023-02-25T11:01:00.846Z,12.36
2023-02-25T11:03:30.900Z,12.64
2023-02-25T11:06:35.434Z,12.51
2023-02-25T11:09:06.307Z,12.83
2023-02-25T11:11:37.208Z,12.66
2023-02-25T11:14:14.993Z,12.10
2023-02-25T11:16:44.383Z,11.63
2023-02-25T11:19:22.839Z,11.71
2023-02-25T11:21:50.006Z,11.47
2023-02-25T11:24:18.765Z,11.55
2023-02-25T11:26:47.902Z,11.73
2023-02-25T11:29:25.845Z,11.65
2023-02-25T11:31:58.834Z,11.45
2023-02-25T11:34:30.883Z,11.47
2023-02-25T11:37:25.257Z,11.60
2023-02-25T11:39:53.839Z,11.18
2023-02-25T11:42:26.523Z,11.57
2023-02-25T11:45:01.442Z,11.24
2023-02-25T11:47:37.995Z,11.27
2023-02-25T11:50:09.572Z,11.14
2023-02-25T11:52:47.086Z,11.30
2023-02-25T11:55:43.118Z,11.32
2023-02-25T11:58:26.817Z,11.58
2023-02-25T12:01:12.480Z,11.64
2023-02-25T12:03:43.475Z,11.89
2023-02-25T12:06:10.194Z,12.16
2023-02-25T12:08:50.086Z,13.45
2023-02-25T12:11:58.380Z,13.80
2023-02-25T12:15:02.478Z,13.66
2023-02-25T12:18:06.225Z,14.44
2023-02-25T12:20:54.007Z,14.71
2023-02-25T12:23:23.637Z,14.78
2023-02-25T12:26:14.747Z,14.54
2023-02-25T12:28:59.955Z,14.29
2023-02-25T12:31:41.215Z,13.92
2023-02-25T12:34:31.948Z,13.68
2023-02-25T12:37:16.473Z,13.42
2023-02-25T12:40:16.881Z,12.80
2023-02-25T12:43:13.618Z,12.50
2023-02-25T12:45:54.915Z,12.02
2023-02-25T12:48:37.441Z,11.90
2023-02-25T12:51:04.066Z,11.69
2023-02-25T12:54:04.149Z,11.49
2023-02-25T12:56:43.006Z,11.16
2023-02-25T12:59:28.653Z,11.62
2023-02-25T13:02:33.943Z,11.79
2023-02-25T13:05:15.609Z,12.19
2023-02-25T13:07:48.140Z,12.54
2023-02-25T13:10:25.781Z,13.00
2023-02-25T13:13:04.621Z,13.36
2023-02-25T13:15:36.676Z,13.83
2023-02-25T13:18:23.607Z,14.25
2023-02-25T13:21:12.048Z,14.61
2023-02-25T13:23:48.170Z,14.04
2023-02-25T13:26:36.334Z,13.75
2023-02-25T13:29:11.816Z,13.69
2023-02-25T13:32:13.479Z,13.17
2023-02-25T13:34:50.382Z,13.37
2023-02-25T13:38:02.073Z,13.57
2023-02-25T13:40:50.766Z,13.51
2023-02-25T13:43:39.238Z,13.29
2023-02-25T13:46:28.771Z,13.35
2023-02-25T13:49:26.371Z,13.03
2023-02-25T13:52:01.953Z,13.40
2023-02-25T13:55:06.160Z,13.76
2023-02-25T13:57:57.844Z,13.63
2023-02-25T14:00:55.927Z,13.45
2023-02-25T14:03:48.338Z,13.18
2023-02-25T14:06:17.926Z,13.32
2023-02-25T14:09:00.188Z,13.16
2023-02-25T14:11:43.591Z,12.78
2023-02-25T14:14:28.511Z,13.16
2023-02-25T14:17:00.857Z,12.92
2023-02-25T14:19:37.051Z,12.99
2023-02-25T14:22:20.906Z,13.01
2023-02-25T14:25:17.183Z,13.21
2023-02-25T14:28:05.888Z,12.64
2023-02-25T14:30:50.888Z,12.88
2023-02-25T14:33:54.752Z,13.11
2023-02-25T14:36:44.521Z,13.09
2023-02-25T14:39:29.775Z,13.05
2023-02-25T14:42:16.492Z,13.28
2023-02-25T14:44:56.652Z,13.50
2023-02-25T14:47:29.573Z,13.29
2023-02-25T14:50:09.312Z,13.29
2023-02-25T14:52:49.625Z,13.29
2023-02-25T14:55:53.937Z,13.39
2023-02-25T14:58:39.268Z,13.34
2023-02-25T15:01:37.129Z,13.10
2023-02-25T15:04:43.397Z,13.07
2023-02-25T15:07:26.731Z,12.97
2023-02-25T15:10:23.072Z,12.78
2023-02-25T15:13:02.533Z,12.19
2023-02-25T15:16:03.801Z,12.16
2023-02-25T15:18:39.604Z,12.12
2023-02-25T15:21:40.181Z,11.90
2023-02-25T15:24:38.413Z,11.88
2023-02-25T15:27:31.356Z,11.80
2023-02-25T15:30:03.238Z,11.69
2023-02-25T15:32:46.755Z,11.83
2023-02-25T15:35:20.123Z,11.62
2023-02-25T15:37:49.696Z,11.50
2023-02-25T15:40:16.318Z,11.61
2023-02-25T15:42:54.169Z,11.60
2023-02-25T15:45:27.349Z,11.65
2023-02-25T15:48:19.231Z,11.64
2023-02-25T15:50:48.886Z,11.47
2023-02-25T15:53:21.744Z,11.34
2023-02-25T15:55:53.536Z,11.30
2023-02-25T15:58:23.384Z,11.03
2023-02-25T16:00:54.272Z,11.11
2023-02-25T16:03:36.128Z,11.14
2023-02-25T16:06:27.512Z,11.15
2023-02-25T16:09:14.161Z,10.91
2023-02-25T16:11:45.158Z,10.69
2023-02-25T16:14:15.033Z,10.59
2023-02-25T16:16:48.209Z,10.32
2023-02-25T16:19:18.766Z,10.32
2023-02-25T16:21:52.146Z,10.24
2023-02-25T16:24:19.924Z,10.25
2023-02-25T16:26:49.904Z,10.19
2023-02-25T16:29:22.662Z,10.09
2023-02-25T16:31:55.262Z,10.00
2023-02-25T16:34:33.141Z,10.09
2023-02-25T16:37:16.418Z,9.93
2023-02-25T16:39:43.099Z,10.05
2023-02-25T16:42:16.570Z,9.87
2023-02-25T16:45:03.857Z,9.84
2023-02-25T16:47:34.107Z,9.57
2023-02-25T16:50:07.749Z,9.62
2023-02-25T16:52:40.932Z,9.63
2023-02-25T16:55:12.587Z,9.64
2023-02-25T16:57:39.764Z,9.39
2023-02-25T17:00:20.158Z,9.42
2023-02-25T17:02:50.629Z,9.24
2023-02-25T17:05:36.547Z,9.15
2023-02-25T17:08:06.326Z,9.17
2023-02-25T17:10:42.460Z,9.05
2023-02-25T17:13:27.415Z,9.10
2023-02-25T17:15:54.857Z,9.05
2023-02-25T17:18:32.683Z,9.18
2023-02-25T17:21:19.583Z,9.10
2023-02-25T17:23:47.040Z,9.06
2023-02-25T17:26:18.504Z,9.01
2023-02-25T17:28:48.306Z,9.05
2023-02-25T17:31:18.601Z,8.93
2023-02-25T17:33:49.133Z,8.93
2023-02-25T17:36:19.579Z,8.82
2023-02-25T17:38:47.007Z,8.91
2023-02-25T17:41:21.781Z,8.82
2023-02-25T17:43:48.476Z,8.85
2023-02-25T17:46:38.188Z,8.79
2023-02-25T17:49:31.105Z,8.73
2023-02-25T17:52:01.425Z,8.78
2023-02-25T17:54:32.774Z,8.67
2023-02-25T17:57:03.635Z,8.59
2023-02-25T17:59:41.630Z,8.63
2023-02-25T18:02:46.700Z,8.60
2023-02-25T18:05:13.374Z,8.30
2023-02-25T18:07:42.616Z,8.36
2023-02-25T18:10:31.398Z,8.18
2023-02-25T18:13:00.355Z,8.12
2023-02-25T18:15:30.892Z,8.06
2023-02-25T18:18:01.405Z,8.00
2023-02-25T18:20:32.039Z,8.09
2023-02-25T18:23:04.579Z,8.05
2023-02-25T18:25:31.299Z,7.90
2023-02-25T18:27:58.145Z,7.90
2023-02-25T18:30:27.407Z,7.96
2023-02-25T18:32:54.391Z,7.99
2023-02-25T18:35:21.947Z,7.93
2023-02-25T18:37:50.410Z,7.94
2023-02-25T18:40:40.524Z,7.91
2023-02-25T18:43:07.452Z,7.91
2023-02-25T18:45:34.435Z,7.74
2023-02-25T18:48:01.696Z,7.58
2023-02-25T18:50:30.142Z,7.60
2023-02-25T18:52:56.819Z,7.53
2023-02-25T18:55:30.166Z,7.49
2023-02-25T18:57:57.488Z,7.51
2023-02-25T19:00:27.310Z,7.47
2023-02-25T19:02:57.484Z,7.46
2023-02-25T19:05:25.770Z,7.43
2023-02-25T19:07:53.108Z,7.43
2023-02-25T19:10:22.880Z,7.35
2023-02-25T19:12:52.090Z,7.31
2023-02-25T19:15:21.224Z,7.24
2023-02-25T19:17:49.307Z,7.25
2023-02-25T19:20:18.571Z,7.25
2023-02-25T19:22:47.677Z,7.24
2023-02-25T19:25:28.081Z,7.23
2023-02-25T19:27:56.330Z,7.20
2023-02-25T19:30:30.942Z,7.13
2023-02-25T19:33:03.529Z,7.04
2023-02-25T19:35:35.152Z,6.95
2023-02-25T19:38:02.436Z,6.92
2023-02-25T19:40:29.407Z,6.87
2023-02-25T19:42:56.282Z,6.74
2023-02-25T19:45:24.316Z,6.78
2023-02-25T19:47:52.524Z,6.79
2023-02-25T19:50:20.818Z,6.79
2023-02-25T19:52:47.619Z,6.74
2023-02-25T19:55:14.688Z,6.69
2023-02-25T19:57:42.026Z,6.69
2023-02-25T20:00:13.802Z,6.66
2023-02-25T20:02:41.167Z,6.62
2023-02-25T20:05:08.866Z,6.59
2023-02-25T20:07:35.653Z,6.50
2023-02-25T20:10:02.394Z,6.40
2023-02-25T20:12:29.038Z,6.39
2023-02-25T20:14:56.979Z,6.40
2023-02-25T20:17:25.175Z,6.33
2023-02-25T20:19:52.725Z,6.32
2023-02-25T20:22:23.616Z,6.24
2023-02-25T20:24:50.948Z,6.17
2023-02-25T20:27:17.970Z,6.10
2023-02-25T20:29:44.776Z,6.06
2023-02-25T20:32:11.610Z,6.15
2023-02-25T20:34:38.948Z,6.18
2023-02-25T20:37:17.387Z,6.18
2023-02-25T20:39:54.909Z,6.17
2023-02-25T20:42:25.132Z,6.17
2023-02-25T20:44:52.918Z,6.16
2023-02-25T20:47:21.786Z,6.17
2023-02-25T20:49:49.299Z,6.19
2023-02-25T20:52:18.629Z,6.25
2023-02-25T20:54:46.211Z,6.25
2023-02-25T20:57:16.835Z,6.26
2023-02-25T20:59:43.513Z,6.24
2023-02-25T21:02:11.349Z,6.25
2023-02-25T21:04:38.450Z,6.19
2023-02-25T21:07:06.982Z,6.11
2023-02-25T21:09:34.484Z,6.00
2023-02-25T21:12:01.568Z,5.93
2023-02-25T21:14:28.297Z,5.88
2023-02-25T21:16:55.051Z,5.88
2023-02-25T21:19:26.597Z,5.80
2023-02-25T21:21:53.463Z,5.83
2023-02-25T21:24:20.774Z,5.84
2023-02-25T21:26:47.617Z,5.83
2023-02-25T21:29:14.906Z,5.75
2023-02-25T21:31:42.180Z,5.72
2023-02-25T21:34:11.632Z,5.66
2023-02-25T21:36:39.136Z,5.62
2023-02-25T21:39:06.932Z,5.64
2023-02-25T21:41:33.650Z,5.65
2023-02-25T21:44:00.264Z,5.64
2023-02-25T21:46:27.611Z,5.59
2023-02-25T21:48:55.886Z,5.61
2023-02-25T21:51:25.045Z,5.58
2023-02-25T21:53:56.501Z,5.52
2023-02-25T21:56:24.317Z,5.48
2023-02-25T21:58:56.182Z,5.45
2023-02-25T22:01:25.827Z,5.38
2023-02-25T22:03:52.550Z,5.37
2023-02-25T22:06:19.685Z,5.34
2023-02-25T22:08:46.331Z,5.29
2023-02-25T22:11:19.280Z,5.25
2023-02-25T22:13:46.153Z,5.19
2023-02-25T22:16:14.706Z,5.14
2023-02-25T22:18:41.912Z,5.15
2023-02-25T22:21:16.626Z,5.09
2023-02-25T22:23:43.629Z,5.12
2023-02-25T22:26:12.795Z,5.11
2023-02-25T22:28:39.947Z,5.07
2023-02-25T22:31:10.494Z,5.03
2023-02-25T22:33:37.430Z,4.98
2023-02-25T22:36:05.869Z,4.94
2023-02-25T22:38:35.105Z,4.89
2023-02-25T22:41:01.885Z,4.87
2023-02-25T22:43:29.980Z,4.81
2023-02-25T22:46:18.134Z,4.82
2023-02-25T22:48:47.008Z,4.75
2023-02-25T22:51:18.303Z,4.82
2023-02-25T22:53:45.113Z,4.78
2023-02-25T22:56:11.763Z,4.80
2023-02-25T22:58:40.528Z,4.72
2023-02-25T23:01:08.678Z,4.71
2023-02-25T23:03:35.427Z,4.72
2023-02-25T23:06:02.313Z,4.70
2023-02-25T23:08:29.033Z,4.70
2023-02-25T23:10:55.746Z,4.67
2023-02-25T23:13:22.424Z,4.61
2023-02-25T23:15:49.531Z,4.61
2023-02-25T23:18:16.536Z,4.59
2023-02-25T23:20:43.777Z,4.60
2023-02-25T23:23:13.493Z,4.61
2023-02-25T23:25:42.385Z,4.59
2023-02-25T23:28:09.713Z,4.41
2023-02-25T23:30:38.604Z,4.32
2023-02-25T23:33:06.310Z,4.38
2023-02-25T23:35:33.691Z,4.45
2023-02-25T23:38:00.935Z,4.40
2023-02-25T23:40:28.846Z,4.47
2023-02-25T23:42:56.103Z,4.49
2023-02-25T23:45:22.931Z,4.49
2023-02-25T23:47:49.698Z,4.44
2023-02-25T23:50:17.549Z,4.46
2023-02-25T23:52:45.945Z,4.41
2023-02-25T23:55:15.288Z,4.42
2023-02-25T23:57:42.038Z,4.35
